createdAt,value
2022-09-12T00:01:21.399Z,99.90
2022-09-12T00:03:49.758Z,99.90
2022-09-12T00:06:23.126Z,99.90
2022-09-12T00:08:51.958Z,99.90
2022-09-12T00:11:21.517Z,99.90
2022-09-12T00:13:50.047Z,99.90
2022-09-12T00:16:20.219Z,99.90
2022-09-12T00:18:48.543Z,99.90
2022-09-12T00:21:17.784Z,99.90
2022-09-12T00:23:46.781Z,99.90
2022-09-12T00:26:17.232Z,99.90
2022-09-12T00:28:47.503Z,99.90
2022-09-12T00:31:18.029Z,99.90
2022-09-12T00:33:46.389Z,99.90
2022-09-12T00:36:16.585Z,99.90
2022-09-12T00:38:46.001Z,99.90
2022-09-12T00:41:18.336Z,99.90
2022-09-12T00:43:50.404Z,99.90
2022-09-12T00:46:29.036Z,99.90
2022-09-12T00:49:02.162Z,99.90
2022-09-12T00:51:32.542Z,99.90
2022-09-12T00:54:04.049Z,99.90
2022-09-12T00:56:33.000Z,99.90
2022-09-12T00:59:06.910Z,99.90
2022-09-12T01:01:35.648Z,99.90
2022-09-12T01:04:04.731Z,99.90
2022-09-12T01:06:38.244Z,99.90
2022-09-12T01:09:06.903Z,99.90
2022-09-12T01:11:40.004Z,99.90
2022-09-12T01:14:10.323Z,99.90
2022-09-12T01:16:39.377Z,99.90
2022-09-12T01:19:21.676Z,99.90
2022-09-12T01:22:02.263Z,99.90
2022-09-12T01:24:52.368Z,99.90
2022-09-12T01:27:45.417Z,99.90
2022-09-12T01:30:39.841Z,99.90
2022-09-12T01:33:30.963Z,99.90
2022-09-12T01:36:17.556Z,99.90
2022-09-12T01:38:50.380Z,99.90
2022-09-12T01:41:27.495Z,99.90
2022-09-12T01:44:06.508Z,99.90
2022-09-12T01:46:44.086Z,99.90
2022-09-12T01:49:19.214Z,99.90
2022-09-12T01:51:58.388Z,99.90
2022-09-12T01:54:32.843Z,99.90
2022-09-12T01:57:08.621Z,99.90
2022-09-12T01:59:42.200Z,99.90
2022-09-12T02:02:16.315Z,99.90
2022-09-12T02:04:51.606Z,99.90
2022-09-12T02:07:22.255Z,99.90
2022-09-12T02:09:55.727Z,99.90
2022-09-12T02:12:28.650Z,99.90
2022-09-12T02:15:02.201Z,99.90
2022-09-12T02:17:36.435Z,99.90
2022-09-12T02:20:08.285Z,99.90
2022-09-12T02:22:38.404Z,99.90
2022-09-12T02:25:09.259Z,99.90
2022-09-12T02:27:41.296Z,99.90
2022-09-12T02:30:10.868Z,99.90
2022-09-12T02:32:44.937Z,99.90
2022-09-12T02:35:18.418Z,99.90
2022-09-12T02:37:56.560Z,99.90
2022-09-12T02:40:25.776Z,99.90
2022-09-12T02:42:54.377Z,99.90
2022-09-12T02:45:23.818Z,99.90
2022-09-12T02:47:59.775Z,99.90
2022-09-12T02:50:28.764Z,99.90
2022-09-12T02:52:59.934Z,99.90
2022-09-12T02:55:30.473Z,99.90
2022-09-12T02:57:58.964Z,99.90
2022-09-12T03:00:28.361Z,99.90
2022-09-12T03:03:15.485Z,99.90
2022-09-12T03:05:52.716Z,99.90
2022-09-12T03:08:57.386Z,99.90
2022-09-12T03:12:02.360Z,99.90
2022-09-12T03:14:53.096Z,99.90
2022-09-12T03:17:31.648Z,99.90
2022-09-12T03:20:06.859Z,99.90
2022-09-12T03:22:42.422Z,99.90
2022-09-12T03:25:18.647Z,99.90
2022-09-12T03:27:52.898Z,99.90
2022-09-12T03:30:21.090Z,99.90
2022-09-12T03:32:51.191Z,99.90
2022-09-12T03:35:25.191Z,99.90
2022-09-12T03:37:54.297Z,99.90
2022-09-12T03:40:22.723Z,99.90
2022-09-12T03:42:50.908Z,99.90
2022-09-12T03:45:19.207Z,99.90
2022-09-12T03:47:47.429Z,99.90
2022-09-12T03:50:15.732Z,99.90
2022-09-12T03:52:45.420Z,99.90
2022-09-12T03:55:13.656Z,99.90
2022-09-12T03:57:41.948Z,99.90
2022-09-12T04:00:10.864Z,99.90
2022-09-12T04:02:39.050Z,99.90
2022-09-12T04:05:07.489Z,99.90
2022-09-12T04:07:35.654Z,99.90
2022-09-12T04:10:05.889Z,99.90
2022-09-12T04:12:35.622Z,99.90
2022-09-12T04:15:03.870Z,99.90
2022-09-12T04:17:32.039Z,99.90
2022-09-12T04:20:00.340Z,99.90
2022-09-12T04:22:29.916Z,99.90
2022-09-12T04:24:58.048Z,99.90
2022-09-12T04:27:27.758Z,99.90
2022-09-12T04:29:57.069Z,99.90
2022-09-12T04:32:25.437Z,99.90
2022-09-12T04:34:53.655Z,99.90
2022-09-12T04:37:22.276Z,99.90
2022-09-12T04:39:50.714Z,99.90
2022-09-12T04:42:19.129Z,99.90
2022-09-12T04:44:49.789Z,99.90
2022-09-12T04:47:18.938Z,99.90
2022-09-12T04:49:47.098Z,99.90
2022-09-12T04:52:15.260Z,99.90
2022-09-12T04:54:43.485Z,99.90
2022-09-12T04:57:11.932Z,99.90
2022-09-12T04:59:40.329Z,99.90
2022-09-12T05:02:09.918Z,99.90
2022-09-12T05:04:38.131Z,99.90
2022-09-12T05:07:06.904Z,99.90
2022-09-12T05:09:35.061Z,99.90
2022-09-12T05:12:05.529Z,99.90
2022-09-12T05:14:34.556Z,99.90
2022-09-12T05:17:02.908Z,99.90
2022-09-12T05:19:32.969Z,99.90
2022-09-12T05:22:01.599Z,99.90
2022-09-12T05:24:30.293Z,99.90
2022-09-12T05:26:58.452Z,99.90
2022-09-12T05:29:26.677Z,99.90
2022-09-12T05:31:54.873Z,99.90
2022-09-12T05:34:23.441Z,99.90
2022-09-12T05:36:53.082Z,99.90
2022-09-12T05:39:21.376Z,99.90
2022-09-12T05:41:49.558Z,99.90
2022-09-12T05:44:17.987Z,99.90
2022-09-12T05:46:50.404Z,99.90
2022-09-12T05:49:18.878Z,99.90
2022-09-12T05:51:47.366Z,99.90
2022-09-12T05:54:19.481Z,99.90
2022-09-12T05:56:48.941Z,99.90
2022-09-12T05:59:19.152Z,99.90
2022-09-12T06:01:47.851Z,99.90
2022-09-12T06:04:16.177Z,99.90
2022-09-12T06:06:46.239Z,99.90
2022-09-12T06:09:17.293Z,99.90
2022-09-12T06:11:46.628Z,99.90
2022-09-12T06:14:16.159Z,99.90
2022-09-12T06:16:44.811Z,99.90
2022-09-12T06:19:16.536Z,99.90
2022-09-12T06:21:45.369Z,99.90
2022-09-12T06:24:13.598Z,99.90
2022-09-12T06:26:43.821Z,99.90
2022-09-12T06:29:13.398Z,99.90
2022-09-12T06:31:42.981Z,99.90
2022-09-12T06:34:13.321Z,99.90
2022-09-12T06:36:43.652Z,99.90
2022-09-12T06:39:13.445Z,99.90
2022-09-12T06:41:44.201Z,99.90
2022-09-12T06:44:14.690Z,99.90
2022-09-12T06:46:43.002Z,99.90
2022-09-12T06:49:11.453Z,99.90
2022-09-12T06:51:41.947Z,99.90
2022-09-12T06:54:12.916Z,99.90
2022-09-12T06:56:42.480Z,99.90
2022-09-12T06:59:10.741Z,99.90
2022-09-12T07:01:40.225Z,99.90
2022-09-12T07:04:08.510Z,99.90
2022-09-12T07:06:38.524Z,99.90
2022-09-12T07:09:08.251Z,99.90
2022-09-12T07:11:38.850Z,99.90
2022-09-12T07:14:11.009Z,99.90
2022-09-12T07:16:39.221Z,99.90
2022-09-12T07:19:10.059Z,99.90
2022-09-12T07:21:40.258Z,99.90
2022-09-12T07:24:10.029Z,99.90
2022-09-12T07:26:38.722Z,99.90
2022-09-12T07:29:32.766Z,99.90
2022-09-12T07:31:57.462Z,99.90
2022-09-12T07:34:25.948Z,99.90
2022-09-12T07:36:54.139Z,99.90
2022-09-12T07:39:22.341Z,99.90
2022-09-12T07:41:50.516Z,99.90
2022-09-12T07:44:21.595Z,99.90
2022-09-12T07:46:50.508Z,99.90
2022-09-12T07:49:18.652Z,99.90
2022-09-12T07:51:46.857Z,99.90
2022-09-12T07:54:15.485Z,99.90
2022-09-12T07:56:43.705Z,99.90
2022-09-12T07:59:11.865Z,99.90
2022-09-12T08:01:41.686Z,99.90
2022-09-12T08:04:09.913Z,99.90
2022-09-12T08:06:38.072Z,99.60
2022-09-12T08:09:07.919Z,99.90
2022-09-12T08:11:36.571Z,98.70
2022-09-12T08:14:05.843Z,99.20
2022-09-12T08:16:34.903Z,97.50
2022-09-12T08:19:05.457Z,95.60
2022-09-12T08:21:34.362Z,92.00
2022-09-12T08:24:04.765Z,90.90
2022-09-12T08:26:34.074Z,90.40
2022-09-12T08:29:02.601Z,84.30
2022-09-12T08:31:31.956Z,82.30
2022-09-12T08:34:00.947Z,81.50
2022-09-12T08:36:30.528Z,82.30
2022-09-12T08:39:00.696Z,76.20
2022-09-12T08:41:32.211Z,70.40
2022-09-12T08:44:30.286Z,72.70
2022-09-12T08:47:19.064Z,66.70
2022-09-12T08:49:57.170Z,65.00
2022-09-12T08:52:32.332Z,66.20
2022-09-12T08:55:01.909Z,68.60
2022-09-12T08:57:30.186Z,67.40
2022-09-12T08:59:58.628Z,67.30
2022-09-12T09:02:55.503Z,67.60
2022-09-12T09:05:31.001Z,68.40
2022-09-12T09:08:27.438Z,68.10
2022-09-12T09:11:03.781Z,62.70
2022-09-12T09:14:07.835Z,66.00
2022-09-12T09:16:39.465Z,67.60
2022-09-12T09:19:12.427Z,66.20
2022-09-12T09:21:50.694Z,64.40
2022-09-12T09:24:25.053Z,60.00
2022-09-12T09:26:59.098Z,58.40
2022-09-12T09:29:32.528Z,59.20
2022-09-12T09:32:05.506Z,57.20
2022-09-12T09:34:33.788Z,57.20
2022-09-12T09:37:09.848Z,56.30
2022-09-12T09:39:51.583Z,57.50
2022-09-12T09:42:31.933Z,55.40
2022-09-12T09:45:04.133Z,51.50
2022-09-12T09:47:32.573Z,51.40
2022-09-12T09:50:00.765Z,53.60
2022-09-12T09:52:32.769Z,53.10
2022-09-12T09:55:03.001Z,50.90
2022-09-12T09:57:46.697Z,48.30
2022-09-12T10:00:33.629Z,46.60
2022-09-12T10:03:29.245Z,46.50
2022-09-12T10:06:01.618Z,45.00
2022-09-12T10:08:32.109Z,45.60
2022-09-12T10:11:04.939Z,42.80
2022-09-12T10:13:40.985Z,44.20
2022-09-12T10:16:20.003Z,48.60
2022-09-12T10:18:48.712Z,50.00
2022-09-12T10:41:42.915Z,50.50
2022-09-12T10:44:17.197Z,50.60
2022-09-12T10:46:45.538Z,50.00
2022-09-12T10:49:24.307Z,50.40
2022-09-12T10:51:54.090Z,51.60
2022-09-12T10:54:24.974Z,51.20
2022-09-12T10:57:12.997Z,50.00
2022-09-12T10:59:59.921Z,50.50
2022-09-12T11:02:31.103Z,50.20
2022-09-12T11:05:08.025Z,50.90
2022-09-12T11:07:46.904Z,51.10
2022-09-12T11:10:36.447Z,50.20
2022-09-12T11:13:20.668Z,50.40
2022-09-12T11:16:02.604Z,51.00
2022-09-12T11:19:06.261Z,51.00
2022-09-12T11:21:48.760Z,51.10
2022-09-12T11:24:33.408Z,52.20
2022-09-12T11:27:26.777Z,50.50
2022-09-12T11:30:00.723Z,51.00
2022-09-12T11:33:00.193Z,50.70
2022-09-12T11:35:30.751Z,50.60
2022-09-12T11:38:28.575Z,51.70
2022-09-12T11:41:01.735Z,51.70
2022-09-12T11:43:37.141Z,50.40
2022-09-12T11:46:15.579Z,50.80
2022-09-12T11:48:49.876Z,52.10
2022-09-12T11:51:20.888Z,51.10
2022-09-12T11:54:03.325Z,50.40
2022-09-12T11:56:31.624Z,50.40
2022-09-12T11:59:04.200Z,51.40
2022-09-12T12:01:44.946Z,53.20
2022-09-12T12:04:22.116Z,53.30
2022-09-12T12:06:55.173Z,53.60
2022-09-12T12:09:23.549Z,54.00
2022-09-12T12:11:57.631Z,54.70
2022-09-12T12:14:31.595Z,54.20
2022-09-12T12:17:01.671Z,54.80
2022-09-12T12:19:35.735Z,56.10
2022-09-12T12:22:10.177Z,54.90
2022-09-12T12:24:56.497Z,54.30
2022-09-12T12:27:45.746Z,53.70
2022-09-12T12:31:02.279Z,54.80
2022-09-12T12:34:02.105Z,54.30
2022-09-12T12:36:34.394Z,53.70
2022-09-12T12:39:50.040Z,55.50
2022-09-12T12:43:06.104Z,56.10
2022-09-12T12:46:10.733Z,56.00
2022-09-12T12:49:03.494Z,54.80
2022-09-12T12:51:39.516Z,55.00
2022-09-12T12:54:28.718Z,54.60
2022-09-12T12:57:35.418Z,54.80
2022-09-12T13:00:06.981Z,55.10
2022-09-12T13:02:38.302Z,54.60
2022-09-12T13:05:19.102Z,53.90
2022-09-12T13:07:48.772Z,53.50
2022-09-12T13:10:24.380Z,52.80
2022-09-12T13:12:53.227Z,54.00
2022-09-12T13:15:46.037Z,52.80
2022-09-12T13:18:18.240Z,52.60
2022-09-12T13:20:53.206Z,52.90
2022-09-12T13:23:27.730Z,52.80
2022-09-12T13:25:57.881Z,52.90
2022-09-12T13:28:27.482Z,53.00
2022-09-12T13:31:03.914Z,51.80
2022-09-12T13:33:38.013Z,50.70
2022-09-12T13:36:33.021Z,51.90
2022-09-12T13:39:22.340Z,52.70
2022-09-12T13:42:26.915Z,52.20
2022-09-12T13:44:59.741Z,51.30
2022-09-12T13:47:32.043Z,51.40
2022-09-12T13:50:01.076Z,51.10
2022-09-12T13:52:33.586Z,50.40
2022-09-12T13:55:06.342Z,50.40
2022-09-12T13:57:37.614Z,50.50
2022-09-12T14:00:10.624Z,51.70
2022-09-12T14:02:41.875Z,51.20
2022-09-12T14:05:14.632Z,50.70
2022-09-12T14:07:55.131Z,50.40
2022-09-12T14:10:30.268Z,50.60
2022-09-12T14:13:01.543Z,50.70
2022-09-12T14:15:32.688Z,50.40
2022-09-12T14:18:03.295Z,50.40
2022-09-12T14:20:33.544Z,49.70
2022-09-12T14:23:04.841Z,49.70
2022-09-12T14:25:41.438Z,50.10
2022-09-12T14:28:23.179Z,49.80
2022-09-12T14:31:03.394Z,49.70
2022-09-12T14:33:35.529Z,49.80
2022-09-12T14:36:13.393Z,48.60
2022-09-12T14:38:46.394Z,50.00
2022-09-12T14:41:22.548Z,49.40
2022-09-12T14:43:54.272Z,49.90
2022-09-12T14:46:27.193Z,49.40
2022-09-12T14:48:58.845Z,50.80
2022-09-12T14:51:29.579Z,49.70
2022-09-12T14:53:59.599Z,49.60
2022-09-12T14:56:41.299Z,49.90
2022-09-12T14:59:28.763Z,49.20
2022-09-12T15:02:22.377Z,48.70
2022-09-12T15:04:52.313Z,49.00
2022-09-12T15:07:29.484Z,49.60
2022-09-12T15:09:59.970Z,49.40
2022-09-12T15:12:27.904Z,48.50
2022-09-12T15:15:01.187Z,48.70
2022-09-12T15:17:29.366Z,49.40
2022-09-12T15:19:57.514Z,49.60
2022-09-12T15:22:27.161Z,49.60
2022-09-12T15:24:57.512Z,49.60
2022-09-12T15:27:27.502Z,49.90
2022-09-12T15:29:56.391Z,49.50
2022-09-12T15:32:26.444Z,50.60
2022-09-12T15:34:54.796Z,51.20
2022-09-12T15:37:25.492Z,51.90
2022-09-12T15:39:53.746Z,52.70
2022-09-12T15:42:29.764Z,53.90
2022-09-12T15:45:02.367Z,54.80
2022-09-12T15:47:31.014Z,55.50
2022-09-12T15:49:59.188Z,56.60
2022-09-12T15:52:27.363Z,57.50
2022-09-12T15:54:55.564Z,57.40
2022-09-12T15:57:23.730Z,58.30
2022-09-12T15:59:53.644Z,60.90
2022-09-12T16:02:21.939Z,61.50
2022-09-12T16:04:51.832Z,62.50
2022-09-12T16:07:20.077Z,62.70
2022-09-12T16:09:48.501Z,63.80
2022-09-12T16:12:16.652Z,64.20
2022-09-12T16:14:44.823Z,63.20
2022-09-12T16:17:14.372Z,63.60
2022-09-12T16:19:42.549Z,64.70
2022-09-12T16:22:10.780Z,65.90
2022-09-12T16:24:39.412Z,64.90
2022-09-12T16:27:07.972Z,65.10
2022-09-12T16:29:36.196Z,66.20
2022-09-12T16:32:04.769Z,67.30
2022-09-12T16:34:34.381Z,67.60
2022-09-12T16:37:03.029Z,67.30
2022-09-12T16:39:31.173Z,67.90
2022-09-12T16:41:59.412Z,68.20
2022-09-12T16:44:27.684Z,68.00
2022-09-12T16:46:55.910Z,68.10
2022-09-12T16:49:24.089Z,68.70
2022-09-12T16:51:53.794Z,69.40
2022-09-12T16:54:22.085Z,69.40
2022-09-12T16:56:50.327Z,69.30
2022-09-12T16:59:18.528Z,69.60
2022-09-12T17:01:46.980Z,70.20
2022-09-12T17:04:15.184Z,70.60
2022-09-12T17:06:44.124Z,70.70
2022-09-12T17:09:18.454Z,71.90
2022-09-12T17:11:49.650Z,73.10
2022-09-12T17:14:18.009Z,74.30
2022-09-12T17:16:51.672Z,75.60
2022-09-12T17:19:22.402Z,76.30
2022-09-12T17:21:50.585Z,77.00
2022-09-12T17:24:21.068Z,77.40
2022-09-12T17:26:49.285Z,77.90
2022-09-12T17:29:17.827Z,78.00
2022-09-12T17:31:46.658Z,78.50
2022-09-12T17:34:16.354Z,79.30
2022-09-12T17:36:45.313Z,80.40
2022-09-12T17:39:14.363Z,81.40
2022-09-12T17:41:46.057Z,83.50
2022-09-12T17:44:16.237Z,84.90
2022-09-12T17:46:44.662Z,87.40
2022-09-12T17:49:15.540Z,89.90
2022-09-12T17:51:44.668Z,91.60
2022-09-12T17:54:15.767Z,93.70
2022-09-12T17:56:46.655Z,94.30
2022-09-12T17:59:17.360Z,96.40
2022-09-12T18:02:04.095Z,98.00
2022-09-12T18:04:32.654Z,99.90
2022-09-12T18:07:01.406Z,99.90
2022-09-12T18:09:30.742Z,99.90
2022-09-12T18:12:00.499Z,99.90
2022-09-12T18:14:29.508Z,99.90
2022-09-12T18:16:58.158Z,99.90
2022-09-12T18:19:27.149Z,99.90
2022-09-12T18:21:56.042Z,99.90
2022-09-12T18:24:24.666Z,99.90
2022-09-12T18:26:52.910Z,99.90
2022-09-12T18:29:23.180Z,99.90
2022-09-12T18:31:51.569Z,99.90
2022-09-12T18:34:19.758Z,99.90
2022-09-12T18:36:51.555Z,99.90
2022-09-12T18:39:24.091Z,99.90
2022-09-12T18:41:55.561Z,99.90
2022-09-12T18:44:25.223Z,99.90
2022-09-12T18:46:53.562Z,99.90
2022-09-12T18:49:22.016Z,99.90
2022-09-12T18:51:50.521Z,99.90
2022-09-12T18:54:19.144Z,99.90
2022-09-12T18:56:47.739Z,99.90
2022-09-12T18:59:16.646Z,99.90
2022-09-12T19:01:46.324Z,99.90
2022-09-12T19:04:16.360Z,99.90
2022-09-12T19:06:46.119Z,99.90
2022-09-12T19:09:16.351Z,99.90
2022-09-12T19:11:49.562Z,99.90
2022-09-12T19:14:18.585Z,99.90
2022-09-12T19:16:48.196Z,99.90
2022-09-12T19:19:16.664Z,99.90
2022-09-12T19:21:45.093Z,99.90
2022-09-12T19:24:14.403Z,99.90
2022-09-12T19:26:42.936Z,99.90
2022-09-12T19:29:14.362Z,99.90
2022-09-12T19:31:42.843Z,99.90
2022-09-12T19:34:13.945Z,99.90
2022-09-12T19:36:46.962Z,99.90
2022-09-12T19:39:16.404Z,99.90
2022-09-12T19:41:44.956Z,99.90
2022-09-12T19:44:13.384Z,99.90
2022-09-12T19:46:42.000Z,99.90
2022-09-12T19:49:13.809Z,99.90
2022-09-12T19:51:42.155Z,99.90
2022-09-12T19:54:11.246Z,99.90
2022-09-12T19:56:39.506Z,99.90
2022-09-12T19:59:08.725Z,99.90
2022-09-12T20:01:37.757Z,99.90
2022-09-12T20:04:06.894Z,99.90
2022-09-12T20:06:36.923Z,99.90
2022-09-12T20:09:05.403Z,99.90
2022-09-12T20:11:33.848Z,99.90
2022-09-12T20:14:02.203Z,99.90
2022-09-12T20:16:31.038Z,99.90
2022-09-12T20:19:01.144Z,99.90
2022-09-12T20:21:32.995Z,99.90
2022-09-12T20:24:04.477Z,99.90
2022-09-12T20:26:33.069Z,99.90
2022-09-12T20:29:01.429Z,99.90
2022-09-12T20:31:30.324Z,99.90
2022-09-12T20:33:58.799Z,99.90
2022-09-12T20:36:27.594Z,99.90
2022-09-12T20:38:58.005Z,99.90
2022-09-12T20:41:29.932Z,99.90
2022-09-12T20:43:58.822Z,99.90
2022-09-12T20:46:27.996Z,99.90
2022-09-12T20:48:56.516Z,99.90
2022-09-12T20:51:26.751Z,99.90
2022-09-12T20:53:55.758Z,99.90
2022-09-12T20:56:24.690Z,99.90
2022-09-12T20:58:54.659Z,99.90
2022-09-12T21:01:23.409Z,99.90
2022-09-12T21:03:51.850Z,99.90
2022-09-12T21:06:20.929Z,99.90
2022-09-12T21:08:50.454Z,99.90
2022-09-12T21:11:19.748Z,99.90
2022-09-12T21:13:48.509Z,99.90
2022-09-12T21:16:20.407Z,99.90
2022-09-12T21:18:53.898Z,99.90
2022-09-12T21:21:23.904Z,99.90
2022-09-12T21:23:54.226Z,99.90
2022-09-12T21:26:22.676Z,99.90
2022-09-12T21:28:50.912Z,99.90
2022-09-12T21:31:20.661Z,99.90
2022-09-12T21:33:49.125Z,99.90
2022-09-12T21:36:17.351Z,99.90
2022-09-12T21:38:45.618Z,99.90
2022-09-12T21:41:15.407Z,99.90
2022-09-12T21:43:44.350Z,99.90
2022-09-12T21:46:13.074Z,99.90
2022-09-12T21:48:44.396Z,99.90
2022-09-12T21:51:12.591Z,99.90
2022-09-12T21:53:40.889Z,99.90
2022-09-12T21:56:10.156Z,99.90
2022-09-12T21:58:39.337Z,99.90
2022-09-12T22:01:09.746Z,99.90
2022-09-12T22:03:37.943Z,99.90
2022-09-12T22:06:07.955Z,99.90
2022-09-12T22:08:37.320Z,99.90
2022-09-12T22:11:09.420Z,99.90
2022-09-12T22:13:39.254Z,99.90
2022-09-12T22:16:08.088Z,99.90
2022-09-12T22:18:36.961Z,99.90
2022-09-12T22:21:09.121Z,99.90
2022-09-12T22:23:54.658Z,99.90
2022-09-12T22:26:23.164Z,99.90
2022-09-12T22:28:51.871Z,99.90
2022-09-12T22:31:20.322Z,99.90
2022-09-12T22:33:48.754Z,99.90
2022-09-12T22:36:18.321Z,99.90
2022-09-12T22:38:46.607Z,99.90
2022-09-12T22:41:14.856Z,99.90
2022-09-12T22:43:43.192Z,99.90
2022-09-12T22:46:13.350Z,99.90
2022-09-12T22:48:41.902Z,99.90
2022-09-12T22:51:10.168Z,99.90
2022-09-12T22:53:40.095Z,99.90
2022-09-12T22:56:09.149Z,99.90
2022-09-12T22:58:38.284Z,99.90
2022-09-12T23:01:07.244Z,99.90
2022-09-12T23:03:36.398Z,99.90
2022-09-12T23:06:05.639Z,99.90
2022-09-12T23:08:36.248Z,99.90
2022-09-12T23:11:09.337Z,99.90
2022-09-12T23:13:37.799Z,99.90
2022-09-12T23:16:07.965Z,99.90
2022-09-12T23:18:36.927Z,99.90
2022-09-12T23:21:07.020Z,99.90
2022-09-12T23:23:35.806Z,99.90
2022-09-12T23:26:07.490Z,99.90
2022-09-12T23:28:36.085Z,99.90
2022-09-12T23:31:04.747Z,99.90
2022-09-12T23:33:33.834Z,99.90
2022-09-12T23:36:02.909Z,99.90
2022-09-12T23:38:31.938Z,99.90
2022-09-12T23:41:00.674Z,99.90
2022-09-12T23:43:30.660Z,99.90
2022-09-12T23:45:58.961Z,99.90
2022-09-12T23:48:27.498Z,99.90
2022-09-12T23:50:55.928Z,99.90
2022-09-12T23:53:24.691Z,99.90
2022-09-12T23:55:53.028Z,99.90
2022-09-12T23:58:22.613Z,99.90
